Time;durP1;ratioP1;P1;durP2;ratioP2;P2;SDS_P1;SDS_P2;PMS_P1;PMS_P2;Temp;Humidity;BMP_temperature;BMP_pressure;BME280_temperature;BME280_humidity;BME280_pressure;Samples;Min_cycle;Max_cycle;Signal;HPM_P1;HPM_P2
2024/02/26 06:14:34;;;;;;;14.48;9.27;;;5.40;99.90;;;;;;6257820;22;20019;-73
2024/02/26 06:17:20;;;;;;;13.40;9.38;;;5.40;99.90;;;;;;6271371;22;20022;-70
2024/02/26 06:20:11;;;;;;;12.50;9.32;;;5.40;99.90;;;;;;6271440;22;20008;-71
2024/02/26 06:22:57;;;;;;;13.10;10.23;;;5.40;99.90;;;;;;6273636;22;20008;-72
2024/02/26 06:25:43;;;;;;;13.75;9.07;;;5.40;99.90;;;;;;6271340;22;20054;-73
2024/02/26 06:28:32;;;;;;;13.68;9.52;;;5.40;99.90;;;;;;6272081;22;20003;-73
2024/02/26 06:31:18;;;;;;;13.77;9.07;;;5.50;99.90;;;;;;6271289;22;20887;-70
2024/02/26 06:34:04;;;;;;;17.75;9.93;;;5.40;99.90;;;;;;6271839;22;20083;-71
2024/02/26 06:36:50;;;;;;;15.70;10.18;;;5.40;99.90;;;;;;6271863;22;20007;-72
2024/02/26 06:39:36;;;;;;;13.35;9.68;;;5.50;99.90;;;;;;6271650;22;20010;-72
2024/02/26 06:42:22;;;;;;;16.63;11.60;;;5.50;99.90;;;;;;6271153;22;20019;-72
2024/02/26 06:45:08;;;;;;;14.80;10.43;;;5.60;99.90;;;;;;6273040;22;20016;-72
2024/02/26 06:47:55;;;;;;;14.68;10.68;;;5.60;99.90;;;;;;6270878;22;20451;-72
2024/02/26 06:50:47;;;;;;;13.60;10.25;;;5.70;99.90;;;;;;6273811;22;20031;-71
2024/02/26 06:53:33;;;;;;;17.15;10.52;;;5.70;99.90;;;;;;6271599;22;20007;-72
2024/02/26 06:56:19;;;;;;;15.07;10.98;;;5.80;99.90;;;;;;6272418;22;20082;-71
2024/02/26 06:59:05;;;;;;;14.15;10.30;;;5.80;99.90;;;;;;6270247;22;20012;-71
2024/02/26 07:01:51;;;;;;;13.90;9.40;;;5.90;99.90;;;;;;6271059;22;20091;-72
2024/02/26 07:04:37;;;;;;;14.65;10.95;;;5.90;99.90;;;;;;6270483;22;20010;-72
2024/02/26 07:07:23;;;;;;;15.63;11.57;;;5.90;99.90;;;;;;6272044;22;20097;-72
2024/02/26 07:10:12;;;;;;;14.02;10.48;;;6.00;99.90;;;;;;6271535;22;20386;-73
2024/02/26 07:12:58;;;;;;;15.63;10.60;;;6.00;99.90;;;;;;6270856;22;20030;-73
2024/02/26 07:15:44;;;;;;;18.38;11.65;;;6.00;99.90;;;;;;6270733;22;20016;-72
2024/02/26 07:18:30;;;;;;;17.38;10.60;;;6.00;99.90;;;;;;6270353;22;20007;-74
2024/02/26 07:21:16;;;;;;;20.30;11.38;;;6.10;99.90;;;;;;6272183;22;20007;-74
2024/02/26 07:24:02;;;;;;;15.95;11.60;;;6.20;99.90;;;;;;6273075;22;20012;-73
2024/02/26 07:26:48;;;;;;;16.38;11.50;;;6.20;99.90;;;;;;6271505;22;20405;-73
2024/02/26 07:29:34;;;;;;;18.38;11.25;;;6.20;99.90;;;;;;6271970;22;20008;-73
2024/02/26 07:32:20;;;;;;;16.02;11.15;;;6.30;99.90;;;;;;6272052;22;20505;-74
2024/02/26 07:35:06;;;;;;;17.23;12.07;;;6.30;99.90;;;;;;6270562;22;20428;-74
2024/02/26 07:37:52;;;;;;;15.43;11.32;;;6.30;99.90;;;;;;6272083;22;20014;-75
2024/02/26 07:40:38;;;;;;;16.58;11.45;;;6.30;99.90;;;;;;6271681;22;20062;-73
2024/02/26 07:43:23;;;;;;;17.63;12.43;;;6.30;99.90;;;;;;6271046;22;20039;-72
2024/02/26 07:46:12;;;;;;;15.05;11.70;;;6.40;99.90;;;;;;6271763;22;20400;-73
2024/02/26 07:48:58;;;;;;;17.70;11.45;;;6.40;99.90;;;;;;6272327;22;20078;-72
2024/02/26 07:51:44;;;;;;;18.48;11.55;;;6.40;99.90;;;;;;6271255;22;20012;-71
2024/02/26 07:54:30;;;;;;;19.27;13.02;;;6.40;99.90;;;;;;6270078;22;20011;-73
2024/02/26 07:57:17;;;;;;;19.75;13.57;;;6.50;99.90;;;;;;6270333;22;20014;-68
2024/02/26 08:00:03;;;;;;;15.70;11.50;;;6.50;99.90;;;;;;6271786;22;20090;-69
2024/02/26 08:02:49;;;;;;;18.50;12.82;;;6.60;99.90;;;;;;6270738;22;20019;-70
2024/02/26 08:05:39;;;;;;;17.42;12.43;;;6.70;99.90;;;;;;6270656;22;20118;-69
2024/02/26 08:08:25;;;;;;;19.92;12.80;;;6.70;99.90;;;;;;6272751;22;20336;-67
2024/02/26 08:11:13;;;;;;;15.20;10.50;;;6.80;99.90;;;;;;6248188;22;20008;-70
2024/02/26 08:13:59;;;;;;;15.95;11.77;;;6.90;99.90;;;;;;6270724;22;20043;-68
2024/02/26 08:16:45;;;;;;;17.08;11.98;;;7.00;99.90;;;;;;6268060;22;20011;-69
2024/02/26 08:19:31;;;;;;;16.95;11.43;;;7.00;99.90;;;;;;6277884;22;20008;-69
2024/02/26 08:22:17;;;;;;;16.40;11.95;;;7.10;99.90;;;;;;6290279;22;20067;-69
2024/02/26 08:25:06;;;;;;;17.08;11.73;;;7.20;99.90;;;;;;6274280;22;20459;-69
2024/02/26 08:27:52;;;;;;;17.13;12.20;;;7.30;99.90;;;;;;6277543;22;20076;-71
2024/02/26 08:30:38;;;;;;;16.02;11.57;;;7.40;99.90;;;;;;6288242;22;20034;-70
2024/02/26 08:33:24;;;;;;;18.38;12.38;;;7.50;99.90;;;;;;6290386;22;20112;-68
2024/02/26 08:36:11;;;;;;;20.35;14.27;;;7.60;99.90;;;;;;6289500;22;20068;-70
2024/02/26 08:38:57;;;;;;;20.63;12.50;;;7.70;99.90;;;;;;6293737;22;20004;-69
2024/02/26 08:41:44;;;;;;;21.15;13.82;;;7.80;99.90;;;;;;6291307;22;20012;-69
2024/02/26 08:44:30;;;;;;;20.05;13.52;;;7.90;99.90;;;;;;6290441;22;20015;-69
2024/02/26 08:47:16;;;;;;;20.38;13.88;;;8.00;99.90;;;;;;6270464;22;20012;-68
2024/02/26 08:50:02;;;;;;;19.13;13.38;;;8.10;99.90;;;;;;6269948;22;20401;-65
2024/02/26 08:52:50;;;;;;;19.20;13.20;;;8.10;99.90;;;;;;6272935;22;20011;-67
2024/02/26 08:55:36;;;;;;;19.80;12.35;;;8.20;99.90;;;;;;6274427;22;20463;-66
2024/02/26 08:58:22;;;;;;;22.13;13.98;;;8.30;99.90;;;;;;6272207;22;20004;-67
2024/02/26 09:01:08;;;;;;;16.13;12.68;;;8.40;99.90;;;;;;6271706;22;20010;-67
2024/02/26 09:03:54;;;;;;;16.52;11.30;;;8.50;99.90;;;;;;6271755;22;20007;-66
2024/02/26 09:06:40;;;;;;;18.60;13.25;;;8.60;99.90;;;;;;6277284;22;20263;-66
2024/02/26 09:09:26;;;;;;;20.98;13.57;;;8.60;99.90;;;;;;6277168;22;20014;-66
2024/02/26 09:12:12;;;;;;;19.38;13.07;;;8.60;99.90;;;;;;6272577;22;20004;-66
2024/02/26 09:14:58;;;;;;;19.08;13.35;;;8.70;99.90;;;;;;6272498;22;20339;-67
2024/02/26 09:17:45;;;;;;;16.85;12.52;;;8.70;99.90;;;;;;6272386;22;20386;-67
2024/02/26 09:20:31;;;;;;;17.48;11.30;;;8.70;99.90;;;;;;6273496;22;20428;-67
2024/02/26 09:23:17;;;;;;;18.02;12.55;;;8.80;99.90;;;;;;6270985;22;20440;-67
2024/02/26 09:26:04;;;;;;;16.35;12.95;;;8.90;99.90;;;;;;6270921;22;20094;-67
2024/02/26 09:28:50;;;;;;;18.92;13.57;;;8.90;99.80;;;;;;6272043;22;20344;-67
2024/02/26 09:31:36;;;;;;;18.73;12.05;;;8.90;99.70;;;;;;6271302;22;20019;-67
2024/02/26 09:34:22;;;;;;;19.85;13.13;;;9.00;99.70;;;;;;6271439;22;20424;-66
2024/02/26 09:37:08;;;;;;;15.13;11.73;;;9.00;99.60;;;;;;6271705;22;20011;-65
2024/02/26 09:39:54;;;;;;;18.65;11.40;;;9.00;99.60;;;;;;6271899;22;20004;-66
2024/02/26 09:42:44;;;;;;;16.73;11.57;;;9.20;99.60;;;;;;6272139;22;20007;-66
2024/02/26 09:45:32;;;;;;;18.33;11.98;;;9.20;99.40;;;;;;6270388;22;20019;-68
2024/02/26 09:48:18;;;;;;;15.75;12.20;;;9.30;99.40;;;;;;6270647;22;20487;-69
2024/02/26 09:51:05;;;;;;;18.10;11.77;;;9.30;99.30;;;;;;6271974;22;20015;-68
2024/02/26 09:53:56;;;;;;;15.95;10.95;;;9.40;99.30;;;;;;6272189;22;20012;-62
2024/02/26 09:56:45;;;;;;;15.50;11.57;;;9.50;99.20;;;;;;6271309;22;20007;-62
2024/02/26 09:59:39;;;;;;;19.63;11.63;;;9.60;99.20;;;;;;6272515;22;20087;-62
2024/02/26 10:02:26;;;;;;;15.18;10.60;;;9.70;99.00;;;;;;6271118;22;20007;-62
2024/02/26 10:05:14;;;;;;;15.05;11.68;;;9.80;99.00;;;;;;6270615;22;20016;-63
2024/02/26 10:08:01;;;;;;;17.38;12.88;;;9.90;98.90;;;;;;6270659;22;20352;-64
2024/02/26 10:10:47;;;;;;;18.27;12.07;;;9.90;98.80;;;;;;6271410;22;20015;-63
2024/02/26 10:13:34;;;;;;;15.82;10.98;;;10.00;98.70;;;;;;6270981;22;20004;-62
2024/02/26 10:16:20;;;;;;;14.52;10.18;;;10.10;98.60;;;;;;6269832;22;20043;-62
2024/02/26 10:19:06;;;;;;;13.93;9.38;;;10.10;98.40;;;;;;6270899;22;20008;-63
2024/02/26 10:21:58;;;;;;;14.68;10.23;;;10.20;98.30;;;;;;6270784;22;20499;-68
2024/02/26 10:24:47;;;;;;;13.95;10.68;;;10.20;98.00;;;;;;6271458;22;20015;-67
2024/02/26 10:27:33;;;;;;;15.05;9.77;;;10.30;98.00;;;;;;6270068;22;20011;-67
2024/02/26 10:30:25;;;;;;;12.48;9.73;;;10.40;97.90;;;;;;6272362;22;20007;-67
2024/02/26 10:33:11;;;;;;;17.65;10.88;;;10.50;97.80;;;;;;6271313;22;20012;-67
2024/02/26 10:35:58;;;;;;;13.30;10.02;;;10.60;97.70;;;;;;6271431;22;20085;-67
2024/02/26 10:38:44;;;;;;;12.88;9.27;;;10.60;97.50;;;;;;6273790;22;20019;-67
2024/02/26 10:41:30;;;;;;;11.77;8.77;;;10.70;97.40;;;;;;6269051;22;20007;-67
2024/02/26 10:44:16;;;;;;;12.13;8.50;;;10.80;97.30;;;;;;6271159;22;20073;-68
2024/02/26 10:47:03;;;;;;;13.57;9.85;;;10.80;97.20;;;;;;6270967;22;20019;-68
2024/02/26 10:49:49;;;;;;;14.05;8.77;;;10.90;97.00;;;;;;6247217;22;20011;-68
2024/02/26 10:52:36;;;;;;;11.35;9.13;;;11.00;96.90;;;;;;6273293;22;20090;-68
2024/02/26 10:55:23;;;;;;;13.45;8.73;;;11.00;96.80;;;;;;6271057;22;20090;-68
2024/02/26 10:58:10;;;;;;;11.93;8.30;;;11.10;96.60;;;;;;6270916;22;20011;-68
2024/02/26 11:00:57;;;;;;;12.05;8.77;;;11.20;96.50;;;;;;6271644;22;20440;-68
2024/02/26 11:03:43;;;;;;;16.73;8.60;;;11.30;96.40;;;;;;6271242;22;20003;-67
2024/02/26 11:06:29;;;;;;;10.45;7.53;;;11.30;96.20;;;;;;6245746;22;20023;-68
2024/02/26 11:09:17;;;;;;;9.77;7.38;;;11.30;96.10;;;;;;6270759;22;20073;-67
2024/02/26 11:12:09;;;;;;;9.40;7.47;;;11.40;96.10;;;;;;6267836;22;20082;-68
2024/02/26 11:14:58;;;;;;;11.13;8.48;;;11.50;96.10;;;;;;6270188;22;20081;-67
2024/02/26 11:17:46;;;;;;;10.40;7.68;;;11.60;95.80;;;;;;6269708;22;20344;-67
2024/02/26 11:20:33;;;;;;;10.90;7.53;;;11.60;95.80;;;;;;6269651;22;20037;-68
2024/02/26 11:23:19;;;;;;;9.25;7.43;;;11.70;95.90;;;;;;6269884;22;20008;-67
2024/02/26 11:26:07;;;;;;;10.95;6.95;;;11.70;95.20;;;;;;6270218;22;20122;-67
2024/02/26 11:28:53;;;;;;;9.73;6.65;;;11.70;95.30;;;;;;6272366;22;20008;-67
2024/02/26 11:31:40;;;;;;;9.60;6.28;;;11.80;95.10;;;;;;6270596;22;20049;-67
2024/02/26 11:34:26;;;;;;;10.63;7.35;;;11.80;94.90;;;;;;6269429;22;20388;-68
2024/02/26 11:37:14;;;;;;;8.75;6.60;;;11.80;94.50;;;;;;6271945;22;20090;-68
2024/02/26 11:40:01;;;;;;;9.40;7.07;;;11.90;94.50;;;;;;6270430;22;20069;-68
2024/02/26 11:42:48;;;;;;;10.93;8.23;;;11.90;94.30;;;;;;6270874;22;20012;-68
2024/02/26 11:45:42;;;;;;;13.10;8.10;;;11.90;94.00;;;;;;6248621;22;20015;-68
2024/02/26 11:48:29;;;;;;;9.80;6.60;;;11.90;94.00;;;;;;6270876;22;20035;-67
2024/02/26 11:51:15;;;;;;;8.48;6.28;;;12.00;93.80;;;;;;6270599;22;20098;-68
2024/02/26 11:54:01;;;;;;;10.43;6.75;;;12.00;93.70;;;;;;6270752;22;20085;-69
2024/02/26 11:56:47;;;;;;;11.15;7.25;;;12.00;93.60;;;;;;6269016;22;20014;-71
2024/02/26 11:59:40;;;;;;;9.38;6.63;;;12.10;93.60;;;;;;6266007;22;20015;-67
2024/02/26 12:03:00;;;;;;;9.65;6.13;;;12.10;93.50;;;;;;6268727;22;20395;-67
2024/02/26 12:05:46;;;;;;;9.25;6.70;;;12.20;93.40;;;;;;6270260;22;20157;-63
2024/02/26 12:08:35;;;;;;;10.93;7.05;;;12.20;93.40;;;;;;6268580;22;20011;-62
2024/02/26 12:11:21;;;;;;;12.82;7.72;;;12.30;93.20;;;;;;6270288;22;20393;-63
2024/02/26 12:14:09;;;;;;;9.20;7.25;;;12.40;93.10;;;;;;6270086;22;20058;-64
2024/02/26 12:16:56;;;;;;;10.55;6.88;;;12.50;92.90;;;;;;6242574;22;20250;-63
2024/02/26 12:19:42;;;;;;;10.60;7.05;;;12.50;92.80;;;;;;6274073;22;20012;-64
2024/02/26 12:22:28;;;;;;;10.05;7.97;;;12.60;92.70;;;;;;6273406;22;20008;-63
2024/02/26 12:25:14;;;;;;;10.77;7.38;;;12.70;92.50;;;;;;6270805;22;20011;-63
2024/02/26 12:28:00;;;;;;;10.93;6.88;;;12.70;92.30;;;;;;6272974;22;20104;-63
2024/02/26 12:30:46;;;;;;;11.98;7.00;;;12.70;92.00;;;;;;6272210;22;20008;-63
2024/02/26 12:33:32;;;;;;;9.13;6.18;;;12.80;91.70;;;;;;6273675;22;20021;-62
2024/02/26 12:36:18;;;;;;;8.90;6.25;;;12.80;91.60;;;;;;6271377;22;20064;-62
2024/02/26 12:39:09;;;;;;;8.75;5.55;;;12.80;91.60;;;;;;6262832;22;20440;-62
2024/02/26 12:41:58;;;;;;;12.57;8.07;;;12.90;91.60;;;;;;6269912;22;20460;-62
2024/02/26 12:44:46;;;;;;;10.90;8.13;;;12.90;91.60;;;;;;6269772;22;20023;-62
2024/02/26 12:47:32;;;;;;;10.65;7.30;;;12.90;91.70;;;;;;6271519;22;20020;-63
2024/02/26 12:50:18;;;;;;;13.93;7.78;;;12.90;91.70;;;;;;6272191;22;20066;-62
2024/02/26 12:53:05;;;;;;;14.48;7.90;;;12.90;91.70;;;;;;6269370;22;20436;-62
2024/02/26 12:55:51;;;;;;;9.93;7.22;;;12.90;91.70;;;;;;6270515;22;20555;-62
2024/02/26 12:58:39;;;;;;;10.32;8.10;;;13.00;91.60;;;;;;6270337;22;20011;-62
2024/02/26 13:01:25;;;;;;;10.18;7.43;;;13.00;91.50;;;;;;6247769;22;20094;-62
2024/02/26 13:04:12;;;;;;;10.68;7.20;;;13.00;91.70;;;;;;6270991;22;20014;-63
2024/02/26 13:07:03;;;;;;;11.85;8.68;;;13.00;91.60;;;;;;6271947;22;20022;-62
2024/02/26 13:09:50;;;;;;;9.43;6.70;;;13.00;91.60;;;;;;6273204;22;20038;-63
2024/02/26 13:12:36;;;;;;;8.40;6.47;;;13.00;91.30;;;;;;6271251;22;20007;-62
2024/02/26 13:15:22;;;;;;;9.88;6.70;;;12.90;91.30;;;;;;6271031;22;20020;-62
2024/02/26 13:18:13;;;;;;;10.10;6.78;;;13.00;91.30;;;;;;6270843;22;20046;-61
2024/02/26 13:21:09;;;;;;;8.63;6.15;;;13.00;91.10;;;;;;6271802;22;20027;-61
2024/02/26 13:23:55;;;;;;;9.55;6.30;;;13.00;90.80;;;;;;6271406;22;20019;-63
2024/02/26 13:26:41;;;;;;;8.02;5.95;;;13.00;90.70;;;;;;6271146;22;20023;-62
2024/02/26 13:29:27;;;;;;;8.95;5.22;;;13.00;90.70;;;;;;6271758;22;20050;-62
2024/02/26 13:32:13;;;;;;;9.32;6.15;;;13.00;90.70;;;;;;6271311;22;20340;-62
2024/02/26 13:35:12;;;;;;;8.05;5.97;;;13.00;90.60;;;;;;6270622;22;20452;-61
2024/02/26 13:37:58;;;;;;;6.40;5.00;;;13.10;90.30;;;;;;6271268;22;20008;-63
2024/02/26 13:40:44;;;;;;;8.70;5.03;;;13.10;90.10;;;;;;6271389;22;20046;-62
2024/02/26 13:43:30;;;;;;;5.80;4.05;;;13.10;90.00;;;;;;6270446;22;20007;-63
2024/02/26 13:46:16;;;;;;;10.18;5.38;;;13.10;89.10;;;;;;6271776;22;20042;-63
2024/02/26 13:49:02;;;;;;;8.68;4.93;;;13.00;88.10;;;;;;6272550;22;20007;-62
2024/02/26 13:51:48;;;;;;;6.78;5.28;;;13.00;88.80;;;;;;6250108;22;20015;-62
2024/02/26 13:54:35;;;;;;;8.27;4.95;;;13.00;88.90;;;;;;6270066;22;20011;-62
2024/02/26 13:57:21;;;;;;;8.15;5.25;;;13.00;89.00;;;;;;6273966;22;20011;-62
2024/02/26 14:00:10;;;;;;;9.48;6.32;;;12.90;88.90;;;;;;6271918;22;20008;-63
2024/02/26 14:02:56;;;;;;;7.82;5.25;;;12.90;88.60;;;;;;6270820;22;20014;-63
2024/02/26 14:05:42;;;;;;;8.38;4.72;;;12.90;88.70;;;;;;6270786;22;20106;-63
2024/02/26 14:08:28;;;;;;;10.10;5.43;;;12.90;88.90;;;;;;6271821;22;20008;-62
2024/02/26 14:11:14;;;;;;;10.48;4.82;;;12.90;88.80;;;;;;6270729;22;20030;-62
2024/02/26 14:13:59;;;;;;;8.55;5.60;;;12.90;89.00;;;;;;6269696;22;20065;-62
2024/02/26 14:16:45;;;;;;;7.70;4.95;;;12.90;88.90;;;;;;6270824;22;20016;-62
2024/02/26 14:19:31;;;;;;;7.93;5.45;;;12.80;88.80;;;;;;6271751;22;20058;-62
2024/02/26 14:22:17;;;;;;;8.05;5.97;;;12.80;89.00;;;;;;6270447;22;20008;-63
2024/02/26 14:25:03;;;;;;;9.07;5.40;;;12.80;88.90;;;;;;6269961;22;20452;-63
2024/02/26 14:27:49;;;;;;;8.15;5.93;;;12.80;88.80;;;;;;6272155;22;20014;-62
2024/02/26 14:30:35;;;;;;;12.23;6.10;;;12.70;88.80;;;;;;6270699;22;20018;-62
2024/02/26 14:33:22;;;;;;;8.80;5.97;;;12.70;89.00;;;;;;6271164;22;20457;-62
2024/02/26 14:36:08;;;;;;;10.20;6.05;;;12.70;89.10;;;;;;6270794;22;20003;-62
2024/02/26 14:38:54;;;;;;;8.80;5.55;;;12.70;89.20;;;;;;6272116;22;20039;-62
2024/02/26 14:41:40;;;;;;;8.88;6.00;;;12.60;89.30;;;;;;6270075;22;20393;-62
2024/02/26 14:44:26;;;;;;;9.70;6.10;;;12.60;89.40;;;;;;6269503;22;20019;-62
2024/02/26 14:47:12;;;;;;;9.30;5.13;;;12.60;89.50;;;;;;6269779;22;20452;-62
2024/02/26 14:49:58;;;;;;;9.48;5.90;;;12.60;89.70;;;;;;6271287;22;20008;-62
2024/02/26 14:52:44;;;;;;;7.88;6.20;;;12.50;89.70;;;;;;6247686;22;20039;-63
2024/02/26 14:55:29;;;;;;;8.65;6.20;;;12.50;89.90;;;;;;6270960;22;20139;-62
2024/02/26 14:58:16;;;;;;;9.43;5.80;;;12.50;90.20;;;;;;6267663;22;20016;-63
2024/02/26 15:01:03;;;;;;;9.18;6.47;;;12.50;90.00;;;;;;6270740;22;20073;-63
2024/02/26 15:03:49;;;;;;;13.20;6.30;;;12.40;90.00;;;;;;6270605;22;20397;-61
2024/02/26 15:06:38;;;;;;;10.50;5.57;;;12.40;90.10;;;;;;6270148;22;20059;-62
2024/02/26 15:09:23;;;;;;;10.63;6.80;;;12.40;90.10;;;;;;6246545;22;20007;-63
2024/02/26 15:12:10;;;;;;;9.15;5.50;;;12.40;90.10;;;;;;6268818;22;20068;-62
2024/02/26 15:14:56;;;;;;;8.25;6.05;;;12.30;90.10;;;;;;6270374;22;20022;-62
2024/02/26 15:17:42;;;;;;;8.48;5.35;;;12.30;90.10;;;;;;6269790;22;20047;-62
2024/02/26 15:20:30;;;;;;;9.40;6.55;;;12.30;90.10;;;;;;6269677;22;20007;-62
2024/02/26 15:23:17;;;;;;;9.55;5.80;;;12.30;90.20;;;;;;6269800;22;20008;-62
2024/02/26 15:26:03;;;;;;;9.13;6.20;;;12.30;90.20;;;;;;6271996;22;20026;-62
2024/02/26 15:28:49;;;;;;;7.97;5.75;;;12.20;90.20;;;;;;6271814;22;20491;-62
2024/02/26 15:31:36;;;;;;;10.27;6.32;;;12.20;90.30;;;;;;6270485;22;20016;-62
2024/02/26 15:34:22;;;;;;;10.88;7.10;;;12.10;90.50;;;;;;6271153;22;20078;-62
2024/02/26 15:37:07;;;;;;;10.45;6.35;;;12.10;90.40;;;;;;6271838;22;20026;-63
2024/02/26 15:39:53;;;;;;;8.93;6.50;;;12.10;90.40;;;;;;6270795;22;20035;-62
2024/02/26 15:42:39;;;;;;;11.13;6.78;;;12.00;90.50;;;;;;6269922;22;20007;-62
2024/02/26 15:45:25;;;;;;;10.77;6.65;;;12.00;90.60;;;;;;6269775;22;20027;-62
2024/02/26 15:48:11;;;;;;;12.52;6.80;;;12.00;90.70;;;;;;6271584;22;20011;-64
2024/02/26 15:50:58;;;;;;;10.05;6.60;;;11.90;90.70;;;;;;6270578;22;20458;-62
2024/02/26 15:53:44;;;;;;;12.60;7.55;;;11.90;90.80;;;;;;6269199;22;20510;-62
2024/02/26 15:56:32;;;;;;;12.18;7.38;;;11.90;90.90;;;;;;6269902;22;20376;-62
2024/02/26 15:59:20;;;;;;;11.70;7.45;;;11.80;90.90;;;;;;6270285;22;20003;-61
2024/02/26 16:02:05;;;;;;;11.95;7.72;;;11.80;91.00;;;;;;6267779;22;20015;-62
2024/02/26 16:04:52;;;;;;;11.32;8.07;;;11.70;91.10;;;;;;6269530;22;20444;-62
2024/02/26 16:07:43;;;;;;;9.88;7.60;;;11.70;91.30;;;;;;6269398;22;20015;-63
2024/02/26 16:10:30;;;;;;;13.18;8.10;;;11.60;91.40;;;;;;6267600;22;20012;-62
2024/02/26 16:13:16;;;;;;;13.75;9.05;;;11.60;91.50;;;;;;6267111;22;20042;-62
2024/02/26 16:16:13;;;;;;;12.18;8.63;;;11.60;91.70;;;;;;6269465;22;20024;-62
2024/02/26 16:19:06;;;;;;;15.30;8.85;;;11.50;91.70;;;;;;6268988;22;20012;-62
2024/02/26 16:21:53;;;;;;;14.48;9.70;;;11.50;91.90;;;;;;6271816;22;20007;-62
2024/02/26 16:24:39;;;;;;;13.25;8.98;;;11.50;92.00;;;;;;6268959;22;20057;-62
2024/02/26 16:27:25;;;;;;;14.20;9.75;;;11.40;92.10;;;;;;6269854;22;20016;-62
2024/02/26 16:30:12;;;;;;;13.73;9.60;;;11.40;92.30;;;;;;6269183;22;20008;-62
2024/02/26 16:32:58;;;;;;;13.93;9.80;;;11.30;92.40;;;;;;6270130;22;20035;-60
2024/02/26 16:35:44;;;;;;;16.95;11.40;;;11.30;92.50;;;;;;6267443;22;20095;-60
2024/02/26 16:38:30;;;;;;;14.35;10.32;;;11.30;92.70;;;;;;6269468;22;20091;-59
2024/02/26 16:41:16;;;;;;;15.73;10.45;;;11.30;92.80;;;;;;6270304;22;20558;-59
2024/02/26 16:44:03;;;;;;;13.75;10.48;;;11.30;92.90;;;;;;6270348;22;20485;-59
2024/02/26 16:46:49;;;;;;;15.43;10.98;;;11.30;92.90;;;;;;6268096;22;20066;-59
2024/02/26 16:49:35;;;;;;;16.88;11.57;;;11.30;93.10;;;;;;6270155;22;20084;-58
2024/02/26 16:52:22;;;;;;;18.85;10.75;;;11.20;93.10;;;;;;6271624;22;20035;-59
2024/02/26 16:55:08;;;;;;;20.83;11.70;;;11.20;93.20;;;;;;6269226;22;20140;-59
2024/02/26 16:57:56;;;;;;;15.00;10.52;;;11.20;93.30;;;;;;6267175;22;20043;-60
2024/02/26 17:00:42;;;;;;;14.73;10.60;;;11.20;93.50;;;;;;6268140;22;20039;-59
2024/02/26 17:03:28;;;;;;;14.82;9.25;;;11.20;93.50;;;;;;6268643;22;20095;-59
2024/02/26 17:06:16;;;;;;;15.13;10.27;;;11.20;93.60;;;;;;6271152;22;20081;-60
2024/02/26 17:09:04;;;;;;;11.68;8.88;;;11.10;93.50;;;;;;6269760;22;20161;-60
2024/02/26 17:11:53;;;;;;;15.15;9.90;;;11.10;93.60;;;;;;6271023;22;20008;-58
2024/02/26 17:14:39;;;;;;;12.25;8.95;;;11.10;93.60;;;;;;6270537;22;20020;-59
2024/02/26 17:17:25;;;;;;;13.32;9.60;;;11.10;93.60;;;;;;6271209;22;20007;-60
2024/02/26 17:20:11;;;;;;;12.90;8.82;;;11.10;93.60;;;;;;6268504;22;20034;-59
2024/02/26 17:22:57;;;;;;;15.50;9.43;;;11.10;93.70;;;;;;6272794;22;20453;-59
2024/02/26 17:25:43;;;;;;;13.05;8.35;;;11.10;93.70;;;;;;6271482;22;20452;-59
2024/02/26 17:28:29;;;;;;;13.80;10.18;;;11.10;93.70;;;;;;6272071;22;20432;-59
2024/02/26 17:31:17;;;;;;;15.90;9.82;;;11.10;93.80;;;;;;6270975;22;20456;-59
2024/02/26 17:34:03;;;;;;;17.77;11.95;;;11.00;93.80;;;;;;6272130;22;20472;-59
2024/02/26 17:36:49;;;;;;;16.00;9.85;;;11.00;93.90;;;;;;6270992;22;20016;-60
2024/02/26 17:39:35;;;;;;;15.85;11.20;;;11.00;94.10;;;;;;6271999;22;20035;-59
2024/02/26 17:42:21;;;;;;;21.20;12.10;;;10.90;94.30;;;;;;6271313;22;20354;-59
2024/02/26 17:45:09;;;;;;;22.42;13.15;;;10.90;94.40;;;;;;6270010;22;20332;-59
2024/02/26 17:47:55;;;;;;;20.67;12.07;;;10.80;94.50;;;;;;6270584;22;20084;-59
2024/02/26 17:50:42;;;;;;;22.02;10.75;;;10.80;94.60;;;;;;6271686;22;20043;-59
2024/02/26 17:53:27;;;;;;;23.58;13.00;;;10.80;94.70;;;;;;6272184;22;20375;-59
2024/02/26 17:56:14;;;;;;;20.02;13.60;;;10.80;94.70;;;;;;6270678;22;20456;-58
2024/02/26 17:59:00;;;;;;;22.13;12.80;;;10.80;94.80;;;;;;6271440;22;20566;-59
2024/02/26 18:01:47;;;;;;;21.45;14.25;;;10.70;94.90;;;;;;6269113;22;20008;-59
2024/02/26 18:04:33;;;;;;;19.20;12.95;;;10.70;94.90;;;;;;6272538;22;20395;-58
2024/02/26 18:07:19;;;;;;;23.10;12.90;;;10.70;95.10;;;;;;6271697;22;20088;-59
2024/02/26 18:10:08;;;;;;;21.63;14.40;;;10.70;95.10;;;;;;6270684;22;20027;-59
2024/02/26 18:12:58;;;;;;;23.63;13.32;;;10.70;95.30;;;;;;6272040;22;20086;-58
2024/02/26 18:15:44;;;;;;;18.05;12.20;;;10.60;95.70;;;;;;6269949;22;20041;-59
2024/02/26 18:18:30;;;;;;;22.58;11.90;;;10.60;95.70;;;;;;6271737;22;20008;-60
2024/02/26 18:21:17;;;;;;;19.00;11.65;;;10.50;95.60;;;;;;6271819;22;20061;-59
2024/02/26 18:24:04;;;;;;;18.92;10.82;;;10.50;95.60;;;;;;6271214;22;20016;-59
2024/02/26 18:26:52;;;;;;;18.85;11.23;;;10.40;95.80;;;;;;6273343;22;20019;-59
2024/02/26 18:29:38;;;;;;;16.15;11.18;;;10.40;95.90;;;;;;6272712;22;20007;-60
2024/02/26 18:32:24;;;;;;;14.65;10.07;;;10.30;95.80;;;;;;6268751;22;20023;-60
2024/02/26 18:35:10;;;;;;;17.15;10.85;;;10.30;96.00;;;;;;6270821;22;20015;-66
2024/02/26 18:37:56;;;;;;;15.80;10.70;;;10.30;96.20;;;;;;6271444;22;20008;-71
2024/02/26 18:40:42;;;;;;;15.80;10.50;;;10.20;96.10;;;;;;6272696;22;20004;-68
2024/02/26 18:43:29;;;;;;;15.38;10.30;;;10.20;96.10;;;;;;6270878;22;20016;-66
2024/02/26 18:46:16;;;;;;;14.93;10.52;;;10.20;96.20;;;;;;6271955;22;20027;-69
2024/02/26 18:49:02;;;;;;;14.13;9.80;;;10.10;96.50;;;;;;6269595;22;20121;-69
2024/02/26 18:51:48;;;;;;;14.63;9.48;;;10.00;96.40;;;;;;6270978;22;20072;-68
2024/02/26 18:54:34;;;;;;;17.20;10.27;;;10.00;96.40;;;;;;6270020;22;20004;-68
2024/02/26 18:57:20;;;;;;;16.58;8.43;;;10.00;96.40;;;;;;6269922;22;20674;-69
2024/02/26 19:00:08;;;;;;;12.85;9.25;;;9.90;96.40;;;;;;6250234;22;20008;-68
2024/02/26 19:02:54;;;;;;;14.20;8.98;;;9.90;96.50;;;;;;6272225;22;20011;-68
2024/02/26 19:05:40;;;;;;;11.10;7.28;;;9.90;96.40;;;;;;6272462;22;20015;-68
2024/02/26 19:08:26;;;;;;;13.55;8.75;;;9.90;96.50;;;;;;6269617;22;20667;-68
2024/02/26 19:11:12;;;;;;;15.23;9.38;;;9.80;96.70;;;;;;6270405;22;20050;-69
2024/02/26 19:13:59;;;;;;;10.95;7.30;;;9.80;96.50;;;;;;6271208;22;20321;-69
2024/02/26 19:16:44;;;;;;;10.85;8.38;;;9.80;96.60;;;;;;6271392;22;20050;-68
2024/02/26 19:19:30;;;;;;;14.07;9.23;;;9.80;96.50;;;;;;6269611;22;20073;-68
2024/02/26 19:22:16;;;;;;;11.93;8.32;;;9.70;96.70;;;;;;6271091;22;20012;-68
2024/02/26 19:25:02;;;;;;;15.98;8.65;;;9.70;96.60;;;;;;6270304;22;20015;-68
2024/02/26 19:27:48;;;;;;;14.60;7.97;;;9.70;96.60;;;;;;6271528;22;20016;-69
2024/02/26 19:30:34;;;;;;;12.52;7.68;;;9.60;96.70;;;;;;6269529;22;20012;-68
2024/02/26 19:33:21;;;;;;;12.65;7.68;;;9.60;96.60;;;;;;6250038;22;20336;-68
2024/02/26 19:36:07;;;;;;;13.27;7.85;;;9.60;96.70;;;;;;6270662;22;20012;-68
2024/02/26 19:38:53;;;;;;;19.30;9.38;;;9.50;96.70;;;;;;6271898;22;20003;-69
2024/02/26 19:41:39;;;;;;;12.73;7.50;;;9.50;96.80;;;;;;6269934;22;20090;-69
2024/02/26 19:44:25;;;;;;;13.35;8.27;;;9.50;96.80;;;;;;6248235;22;20081;-68
2024/02/26 19:47:11;;;;;;;10.85;7.95;;;9.40;96.90;;;;;;6270054;22;20018;-68
2024/02/26 19:49:57;;;;;;;10.63;7.35;;;9.40;96.80;;;;;;6269977;22;20039;-68
2024/02/26 19:52:43;;;;;;;14.23;7.95;;;9.40;96.80;;;;;;6269726;22;20086;-65
2024/02/26 19:55:29;;;;;;;12.27;7.20;;;9.40;96.90;;;;;;6270423;22;20003;-68
2024/02/26 19:58:15;;;;;;;10.35;7.65;;;9.30;96.90;;;;;;6271257;22;20046;-67
2024/02/26 20:01:01;;;;;;;11.52;7.38;;;9.30;97.00;;;;;;6270548;22;20066;-70
2024/02/26 20:03:47;;;;;;;11.50;7.60;;;9.20;96.90;;;;;;6271138;22;20085;-68
2024/02/26 20:06:33;;;;;;;10.30;6.60;;;9.20;96.90;;;;;;6269602;22;20016;-73
2024/02/26 20:09:21;;;;;;;11.40;6.93;;;9.20;97.00;;;;;;6271094;22;20442;-74
2024/02/26 20:12:07;;;;;;;11.63;7.60;;;9.10;97.10;;;;;;6270748;22;20337;-74
2024/02/26 20:14:53;;;;;;;11.20;6.90;;;9.10;97.10;;;;;;6269115;22;20020;-74
2024/02/26 20:17:39;;;;;;;8.93;6.85;;;9.00;97.50;;;;;;6272291;22;20078;-74
2024/02/26 20:20:29;;;;;;;10.73;7.72;;;9.00;97.20;;;;;;6271679;22;20019;-73
2024/02/26 20:23:14;;;;;;;11.05;7.45;;;8.90;97.20;;;;;;6269993;22;20015;-73
2024/02/26 20:26:01;;;;;;;13.20;8.27;;;8.90;97.20;;;;;;6269205;22;20030;-73
2024/02/26 20:28:47;;;;;;;10.77;7.35;;;8.90;97.20;;;;;;6270672;22;20011;-72
2024/02/26 20:31:33;;;;;;;11.38;7.15;;;8.90;97.20;;;;;;6248663;22;20363;-72